sensor_id;sensor_type;location;lat;lon;timestamp;temperature;humidity
4701;DHT22;8724;51.272;6.554;2023-10-19T00:00:33;13.60;99.90
4701;DHT22;8724;51.272;6.554;2023-10-19T00:03:00;13.60;99.90
4701;DHT22;8724;51.272;6.554;2023-10-19T00:05:30;13.60;99.90
4701;DHT22;8724;51.272;6.554;2023-10-19T00:07:59;13.60;99.90
4701;DHT22;8724;51.272;6.554;2023-10-19T00:10:32;13.60;99.90
4701;DHT22;8724;51.272;6.554;2023-10-19T00:13:03;13.60;99.90
4701;DHT22;8724;51.272;6.554;2023-10-19T00:15:32;13.60;99.90
4701;DHT22;8724;51.272;6.554;2023-10-19T00:18:01;13.60;99.90
4701;DHT22;8724;51.272;6.554;2023-10-19T00:20:48;13.60;99.90
4701;DHT22;8724;51.272;6.554;2023-10-19T00:23:20;13.60;99.90
4701;DHT22;8724;51.272;6.554;2023-10-19T00:25:56;13.60;99.90
4701;DHT22;8724;51.272;6.554;2023-10-19T00:28:25;13.70;99.90
4701;DHT22;8724;51.272;6.554;2023-10-19T00:30:54;13.70;99.90
4701;DHT22;8724;51.272;6.554;2023-10-19T00:33:30;13.60;99.90
4701;DHT22;8724;51.272;6.554;2023-10-19T00:36:00;13.60;99.90
4701;DHT22;8724;51.272;6.554;2023-10-19T00:38:36;13.60;99.90
4701;DHT22;8724;51.272;6.554;2023-10-19T00:41:09;13.70;99.90
4701;DHT22;8724;51.272;6.554;2023-10-19T00:43:49;13.60;99.90
4701;DHT22;8724;51.272;6.554;2023-10-19T00:46:24;13.70;99.90
4701;DHT22;8724;51.272;6.554;2023-10-19T00:49:01;13.60;99.90
4701;DHT22;8724;51.272;6.554;2023-10-19T00:51:35;13.60;99.90
4701;DHT22;8724;51.272;6.554;2023-10-19T00:54:19;13.60;99.90
4701;DHT22;8724;51.272;6.554;2023-10-19T00:56:54;13.60;99.90
4701;DHT22;8724;51.272;6.554;2023-10-19T00:59:26;13.70;99.90
4701;DHT22;8724;51.272;6.554;2023-10-19T01:01:57;13.70;99.90
4701;DHT22;8724;51.272;6.554;2023-10-19T01:04:44;13.70;99.90
4701;DHT22;8724;51.272;6.554;2023-10-19T01:07:17;13.70;99.90
4701;DHT22;8724;51.272;6.554;2023-10-19T01:09:50;13.70;99.90
4701;DHT22;8724;51.272;6.554;2023-10-19T01:12:21;13.70;99.90
4701;DHT22;8724;51.272;6.554;2023-10-19T01:15:07;13.70;99.90
4701;DHT22;8724;51.272;6.554;2023-10-19T01:17:40;13.70;99.90
4701;DHT22;8724;51.272;6.554;2023-10-19T01:20:13;13.70;99.90
4701;DHT22;8724;51.272;6.554;2023-10-19T01:22:54;13.70;99.90
4701;DHT22;8724;51.272;6.554;2023-10-19T01:25:35;13.70;99.90
4701;DHT22;8724;51.272;6.554;2023-10-19T01:28:13;13.70;99.90
4701;DHT22;8724;51.272;6.554;2023-10-19T01:30:44;13.70;99.90
4701;DHT22;8724;51.272;6.554;2023-10-19T01:33:14;13.70;99.90
4701;DHT22;8724;51.272;6.554;2023-10-19T01:35:43;13.70;99.90
4701;DHT22;8724;51.272;6.554;2023-10-19T01:38:31;13.70;99.90
4701;DHT22;8724;51.272;6.554;2023-10-19T01:41:01;13.70;99.90
4701;DHT22;8724;51.272;6.554;2023-10-19T01:43:28;13.70;99.90
4701;DHT22;8724;51.272;6.554;2023-10-19T01:45:58;13.80;99.90
4701;DHT22;8724;51.272;6.554;2023-10-19T01:48:30;13.70;99.90
4701;DHT22;8724;51.272;6.554;2023-10-19T01:51:03;13.80;99.90
4701;DHT22;8724;51.272;6.554;2023-10-19T01:53:34;13.80;99.90
4701;DHT22;8724;51.272;6.554;2023-10-19T01:56:03;13.80;99.90
4701;DHT22;8724;51.272;6.554;2023-10-19T01:58:32;13.70;99.90
4701;DHT22;8724;51.272;6.554;2023-10-19T02:01:03;13.70;99.90
4701;DHT22;8724;51.272;6.554;2023-10-19T02:03:36;13.80;99.90
4701;DHT22;8724;51.272;6.554;2023-10-19T02:06:09;13.80;99.90
4701;DHT22;8724;51.272;6.554;2023-10-19T02:08:49;13.80;99.90
4701;DHT22;8724;51.272;6.554;2023-10-19T02:11:20;13.80;99.90
4701;DHT22;8724;51.272;6.554;2023-10-19T02:13:50;13.80;99.90
4701;DHT22;8724;51.272;6.554;2023-10-19T02:16:19;13.80;99.90
4701;DHT22;8724;51.272;6.554;2023-10-19T02:18:49;13.80;99.90
4701;DHT22;8724;51.272;6.554;2023-10-19T02:21:18;13.80;99.90
4701;DHT22;8724;51.272;6.554;2023-10-19T02:23:50;13.80;99.90
4701;DHT22;8724;51.272;6.554;2023-10-19T02:26:19;13.90;99.90
4701;DHT22;8724;51.272;6.554;2023-10-19T02:28:47;13.80;99.90
4701;DHT22;8724;51.272;6.554;2023-10-19T02:31:18;13.90;99.90
4701;DHT22;8724;51.272;6.554;2023-10-19T02:33:46;13.90;99.90
4701;DHT22;8724;51.272;6.554;2023-10-19T02:36:18;13.90;99.90
4701;DHT22;8724;51.272;6.554;2023-10-19T02:38:46;13.90;99.90
4701;DHT22;8724;51.272;6.554;2023-10-19T02:41:18;13.90;99.90
4701;DHT22;8724;51.272;6.554;2023-10-19T02:43:46;13.90;99.90
4701;DHT22;8724;51.272;6.554;2023-10-19T02:46:18;13.90;99.90
4701;DHT22;8724;51.272;6.554;2023-10-19T02:48:47;13.90;99.90
4701;DHT22;8724;51.272;6.554;2023-10-19T02:51:16;13.90;99.90
4701;DHT22;8724;51.272;6.554;2023-10-19T02:53:46;13.90;99.90
4701;DHT22;8724;51.272;6.554;2023-10-19T02:56:15;13.90;99.90
4701;DHT22;8724;51.272;6.554;2023-10-19T02:58:46;13.90;99.90
4701;DHT22;8724;51.272;6.554;2023-10-19T03:01:18;14.00;99.90
4701;DHT22;8724;51.272;6.554;2023-10-19T03:03:50;13.90;99.90
4701;DHT22;8724;51.272;6.554;2023-10-19T03:06:19;14.00;99.90
4701;DHT22;8724;51.272;6.554;2023-10-19T03:08:48;14.00;99.90
4701;DHT22;8724;51.272;6.554;2023-10-19T03:11:19;14.00;99.90
4701;DHT22;8724;51.272;6.554;2023-10-19T03:13:48;14.00;99.90
4701;DHT22;8724;51.272;6.554;2023-10-19T03:16:17;14.00;99.90
4701;DHT22;8724;51.272;6.554;2023-10-19T03:18:47;14.00;99.90
4701;DHT22;8724;51.272;6.554;2023-10-19T03:21:16;14.00;99.90
4701;DHT22;8724;51.272;6.554;2023-10-19T03:23:43;14.00;99.90
4701;DHT22;8724;51.272;6.554;2023-10-19T03:26:11;14.00;99.90
4701;DHT22;8724;51.272;6.554;2023-10-19T03:28:50;14.00;99.90
4701;DHT22;8724;51.272;6.554;2023-10-19T03:31:23;14.00;99.90
4701;DHT22;8724;51.272;6.554;2023-10-19T03:33:53;14.00;99.90
4701;DHT22;8724;51.272;6.554;2023-10-19T03:36:26;14.00;99.90
4701;DHT22;8724;51.272;6.554;2023-10-19T03:38:55;14.00;99.90
4701;DHT22;8724;51.272;6.554;2023-10-19T03:41:27;14.20;99.90
4701;DHT22;8724;51.272;6.554;2023-10-19T03:43:58;14.00;99.90
4701;DHT22;8724;51.272;6.554;2023-10-19T03:46:28;14.00;99.90
4701;DHT22;8724;51.272;6.554;2023-10-19T03:48:57;14.10;99.90
4701;DHT22;8724;51.272;6.554;2023-10-19T03:51:31;14.10;99.90
4701;DHT22;8724;51.272;6.554;2023-10-19T03:54:07;14.00;99.90
4701;DHT22;8724;51.272;6.554;2023-10-19T03:56:49;14.10;99.90
4701;DHT22;8724;51.272;6.554;2023-10-19T03:59:19;14.00;99.90
4701;DHT22;8724;51.272;6.554;2023-10-19T04:01:48;14.10;99.90
4701;DHT22;8724;51.272;6.554;2023-10-19T04:04:16;14.10;99.90
4701;DHT22;8724;51.272;6.554;2023-10-19T04:06:44;14.10;99.90
4701;DHT22;8724;51.272;6.554;2023-10-19T04:09:15;14.10;99.90
4701;DHT22;8724;51.272;6.554;2023-10-19T04:11:45;14.10;99.90
4701;DHT22;8724;51.272;6.554;2023-10-19T04:14:16;14.10;99.90
4701;DHT22;8724;51.272;6.554;2023-10-19T04:16:46;14.10;99.90
4701;DHT22;8724;51.272;6.554;2023-10-19T04:19:15;14.10;99.90
4701;DHT22;8724;51.272;6.554;2023-10-19T04:21:44;14.10;99.90
4701;DHT22;8724;51.272;6.554;2023-10-19T04:24:13;14.10;99.90
4701;DHT22;8724;51.272;6.554;2023-10-19T04:26:41;14.10;99.90
4701;DHT22;8724;51.272;6.554;2023-10-19T04:29:10;14.10;99.90
4701;DHT22;8724;51.272;6.554;2023-10-19T04:31:39;14.10;99.90
4701;DHT22;8724;51.272;6.554;2023-10-19T04:34:18;14.10;99.90
4701;DHT22;8724;51.272;6.554;2023-10-19T04:36:47;14.10;99.90
4701;DHT22;8724;51.272;6.554;2023-10-19T04:39:16;14.10;99.90
4701;DHT22;8724;51.272;6.554;2023-10-19T04:41:46;14.10;99.90
4701;DHT22;8724;51.272;6.554;2023-10-19T04:44:16;14.10;99.90
4701;DHT22;8724;51.272;6.554;2023-10-19T04:46:45;14.10;99.90
4701;DHT22;8724;51.272;6.554;2023-10-19T04:49:13;14.10;99.90
4701;DHT22;8724;51.272;6.554;2023-10-19T04:51:44;14.10;99.90
4701;DHT22;8724;51.272;6.554;2023-10-19T04:54:13;14.10;99.90
4701;DHT22;8724;51.272;6.554;2023-10-19T04:56:41;14.10;99.90
4701;DHT22;8724;51.272;6.554;2023-10-19T04:59:09;14.10;99.90
4701;DHT22;8724;51.272;6.554;2023-10-19T05:01:37;14.10;99.90
4701;DHT22;8724;51.272;6.554;2023-10-19T05:04:07;14.10;99.90
4701;DHT22;8724;51.272;6.554;2023-10-19T05:06:35;14.20;99.90
4701;DHT22;8724;51.272;6.554;2023-10-19T05:09:06;14.10;99.90
4701;DHT22;8724;51.272;6.554;2023-10-19T05:11:34;14.10;99.90
4701;DHT22;8724;51.272;6.554;2023-10-19T05:14:03;14.10;99.90
4701;DHT22;8724;51.272;6.554;2023-10-19T05:16:32;14.10;99.90
4701;DHT22;8724;51.272;6.554;2023-10-19T05:19:00;14.10;99.90
4701;DHT22;8724;51.272;6.554;2023-10-19T05:21:30;14.10;99.90
4701;DHT22;8724;51.272;6.554;2023-10-19T05:23:58;14.10;99.90
4701;DHT22;8724;51.272;6.554;2023-10-19T05:26:28;14.10;99.90
4701;DHT22;8724;51.272;6.554;2023-10-19T05:28:57;14.10;99.90
4701;DHT22;8724;51.272;6.554;2023-10-19T05:31:25;14.10;99.90
4701;DHT22;8724;51.272;6.554;2023-10-19T05:33:55;14.20;99.90
4701;DHT22;8724;51.272;6.554;2023-10-19T05:36:23;14.10;99.90
4701;DHT22;8724;51.272;6.554;2023-10-19T05:38:52;14.20;99.90
4701;DHT22;8724;51.272;6.554;2023-10-19T05:41:20;14.20;99.90
4701;DHT22;8724;51.272;6.554;2023-10-19T05:43:50;14.20;99.90
4701;DHT22;8724;51.272;6.554;2023-10-19T05:46:18;14.20;99.90
4701;DHT22;8724;51.272;6.554;2023-10-19T05:48:48;14.20;99.90
4701;DHT22;8724;51.272;6.554;2023-10-19T05:51:17;14.10;99.90
4701;DHT22;8724;51.272;6.554;2023-10-19T05:53:46;14.20;99.90
4701;DHT22;8724;51.272;6.554;2023-10-19T05:56:15;14.20;99.90
4701;DHT22;8724;51.272;6.554;2023-10-19T05:58:43;14.20;99.90
4701;DHT22;8724;51.272;6.554;2023-10-19T06:01:16;14.20;99.90
4701;DHT22;8724;51.272;6.554;2023-10-19T06:03:45;14.20;99.90
4701;DHT22;8724;51.272;6.554;2023-10-19T06:06:13;14.20;99.90
4701;DHT22;8724;51.272;6.554;2023-10-19T06:08:42;14.20;99.90
4701;DHT22;8724;51.272;6.554;2023-10-19T06:11:10;14.20;99.90
4701;DHT22;8724;51.272;6.554;2023-10-19T06:13:38;14.50;99.90
4701;DHT22;8724;51.272;6.554;2023-10-19T06:16:06;14.20;99.90
4701;DHT22;8724;51.272;6.554;2023-10-19T06:18:36;14.20;99.90
4701;DHT22;8724;51.272;6.554;2023-10-19T06:21:04;14.20;99.90
4701;DHT22;8724;51.272;6.554;2023-10-19T06:23:32;14.20;99.90
4701;DHT22;8724;51.272;6.554;2023-10-19T06:26:08;14.20;99.90
4701;DHT22;8724;51.272;6.554;2023-10-19T06:28:38;14.20;99.90
4701;DHT22;8724;51.272;6.554;2023-10-19T06:31:08;14.20;99.90
4701;DHT22;8724;51.272;6.554;2023-10-19T06:33:37;14.20;99.90
4701;DHT22;8724;51.272;6.554;2023-10-19T06:36:08;14.20;99.90
4701;DHT22;8724;51.272;6.554;2023-10-19T06:38:36;14.20;99.90
4701;DHT22;8724;51.272;6.554;2023-10-19T06:41:11;14.20;99.90
4701;DHT22;8724;51.272;6.554;2023-10-19T06:43:40;14.20;99.90
4701;DHT22;8724;51.272;6.554;2023-10-19T06:46:08;14.20;99.90
4701;DHT22;8724;51.272;6.554;2023-10-19T06:48:40;14.20;99.90
4701;DHT22;8724;51.272;6.554;2023-10-19T06:51:09;14.20;99.90
4701;DHT22;8724;51.272;6.554;2023-10-19T06:53:38;14.20;99.90
4701;DHT22;8724;51.272;6.554;2023-10-19T06:56:07;14.50;99.90
4701;DHT22;8724;51.272;6.554;2023-10-19T06:58:35;14.20;99.90
4701;DHT22;8724;51.272;6.554;2023-10-19T07:01:07;14.20;99.90
4701;DHT22;8724;51.272;6.554;2023-10-19T07:03:36;14.20;99.90
4701;DHT22;8724;51.272;6.554;2023-10-19T07:06:06;14.30;99.90
4701;DHT22;8724;51.272;6.554;2023-10-19T07:08:40;14.30;99.90
4701;DHT22;8724;51.272;6.554;2023-10-19T07:11:09;14.30;99.90
4701;DHT22;8724;51.272;6.554;2023-10-19T07:13:37;14.50;99.90
4701;DHT22;8724;51.272;6.554;2023-10-19T07:16:11;14.30;99.90
4701;DHT22;8724;51.272;6.554;2023-10-19T07:18:40;14.30;99.90
4701;DHT22;8724;51.272;6.554;2023-10-19T07:21:09;14.30;99.90
4701;DHT22;8724;51.272;6.554;2023-10-19T07:23:38;14.30;99.90
4701;DHT22;8724;51.272;6.554;2023-10-19T07:26:07;14.30;99.90
4701;DHT22;8724;51.272;6.554;2023-10-19T07:28:35;14.30;99.90
4701;DHT22;8724;51.272;6.554;2023-10-19T07:31:06;14.30;99.90
4701;DHT22;8724;51.272;6.554;2023-10-19T07:33:39;14.40;99.90
4701;DHT22;8724;51.272;6.554;2023-10-19T07:36:14;14.40;99.90
4701;DHT22;8724;51.272;6.554;2023-10-19T07:38:42;14.40;99.90
4701;DHT22;8724;51.272;6.554;2023-10-19T07:41:12;14.30;99.90
4701;DHT22;8724;51.272;6.554;2023-10-19T07:43:40;14.30;99.90
4701;DHT22;8724;51.272;6.554;2023-10-19T07:46:10;14.30;99.90
4701;DHT22;8724;51.272;6.554;2023-10-19T07:48:39;14.40;99.90
4701;DHT22;8724;51.272;6.554;2023-10-19T07:51:08;14.40;99.90
4701;DHT22;8724;51.272;6.554;2023-10-19T07:53:39;14.40;99.90
4701;DHT22;8724;51.272;6.554;2023-10-19T07:56:08;14.40;99.90
4701;DHT22;8724;51.272;6.554;2023-10-19T07:58:36;14.40;99.90
4701;DHT22;8724;51.272;6.554;2023-10-19T08:01:05;14.40;99.90
4701;DHT22;8724;51.272;6.554;2023-10-19T08:03:33;14.40;99.90
4701;DHT22;8724;51.272;6.554;2023-10-19T08:06:02;14.50;99.90
4701;DHT22;8724;51.272;6.554;2023-10-19T08:08:33;14.50;99.90
4701;DHT22;8724;51.272;6.554;2023-10-19T08:11:04;14.60;99.90
4701;DHT22;8724;51.272;6.554;2023-10-19T08:13:32;14.50;99.90
4701;DHT22;8724;51.272;6.554;2023-10-19T08:16:01;14.50;99.90
4701;DHT22;8724;51.272;6.554;2023-10-19T08:18:29;14.50;99.90
4701;DHT22;8724;51.272;6.554;2023-10-19T08:20:58;14.60;99.90
4701;DHT22;8724;51.272;6.554;2023-10-19T08:23:26;14.50;99.90
4701;DHT22;8724;51.272;6.554;2023-10-19T08:25:54;14.60;99.90
4701;DHT22;8724;51.272;6.554;2023-10-19T08:28:25;14.60;99.90
4701;DHT22;8724;51.272;6.554;2023-10-19T08:30:54;14.60;99.90
4701;DHT22;8724;51.272;6.554;2023-10-19T08:33:27;14.60;99.90
4701;DHT22;8724;51.272;6.554;2023-10-19T08:35:57;14.60;99.90
4701;DHT22;8724;51.272;6.554;2023-10-19T08:38:27;14.60;99.90
4701;DHT22;8724;51.272;6.554;2023-10-19T08:40:56;14.60;99.90
4701;DHT22;8724;51.272;6.554;2023-10-19T08:43:26;14.60;99.90
4701;DHT22;8724;51.272;6.554;2023-10-19T08:45:55;14.70;99.90
4701;DHT22;8724;51.272;6.554;2023-10-19T08:48:24;14.70;99.90
4701;DHT22;8724;51.272;6.554;2023-10-19T08:50:52;14.70;99.90
4701;DHT22;8724;51.272;6.554;2023-10-19T08:53:24;14.70;99.90
4701;DHT22;8724;51.272;6.554;2023-10-19T08:55:52;14.70;99.90
4701;DHT22;8724;51.272;6.554;2023-10-19T08:58:21;14.70;99.90
4701;DHT22;8724;51.272;6.554;2023-10-19T09:00:51;14.70;99.90
4701;DHT22;8724;51.272;6.554;2023-10-19T09:03:23;14.80;99.90
4701;DHT22;8724;51.272;6.554;2023-10-19T09:05:53;14.80;99.90
4701;DHT22;8724;51.272;6.554;2023-10-19T09:08:24;14.80;99.90
4701;DHT22;8724;51.272;6.554;2023-10-19T09:10:52;14.80;99.90
4701;DHT22;8724;51.272;6.554;2023-10-19T09:13:22;14.80;99.90
4701;DHT22;8724;51.272;6.554;2023-10-19T09:15:53;14.80;99.90
4701;DHT22;8724;51.272;6.554;2023-10-19T09:18:24;14.90;99.90
4701;DHT22;8724;51.272;6.554;2023-10-19T09:20:55;14.90;99.90
4701;DHT22;8724;51.272;6.554;2023-10-19T09:23:30;14.90;99.90
4701;DHT22;8724;51.272;6.554;2023-10-19T09:26:00;14.90;99.90
4701;DHT22;8724;51.272;6.554;2023-10-19T09:28:30;14.90;99.90
4701;DHT22;8724;51.272;6.554;2023-10-19T09:31:02;15.00;99.90
4701;DHT22;8724;51.272;6.554;2023-10-19T09:33:32;15.00;99.90
4701;DHT22;8724;51.272;6.554;2023-10-19T09:36:03;15.00;99.90
4701;DHT22;8724;51.272;6.554;2023-10-19T09:38:43;15.00;99.90
4701;DHT22;8724;51.272;6.554;2023-10-19T09:41:12;15.00;99.90
4701;DHT22;8724;51.272;6.554;2023-10-19T09:43:43;15.10;99.90
4701;DHT22;8724;51.272;6.554;2023-10-19T09:46:21;15.10;99.90
4701;DHT22;8724;51.272;6.554;2023-10-19T09:48:49;15.10;99.90
4701;DHT22;8724;51.272;6.554;2023-10-19T09:51:19;15.10;99.90
4701;DHT22;8724;51.272;6.554;2023-10-19T09:53:53;15.40;99.90
4701;DHT22;8724;51.272;6.554;2023-10-19T09:56:26;15.20;99.90
4701;DHT22;8724;51.272;6.554;2023-10-19T09:59:02;14.90;99.90
4701;DHT22;8724;51.272;6.554;2023-10-19T10:04:33;15.20;99.90
4701;DHT22;8724;51.272;6.554;2023-10-19T10:07:04;15.30;99.90
4701;DHT22;8724;51.272;6.554;2023-10-19T10:09:35;15.30;99.90
4701;DHT22;8724;51.272;6.554;2023-10-19T10:12:19;15.30;99.90
4701;DHT22;8724;51.272;6.554;2023-10-19T10:14:58;15.40;99.90
4701;DHT22;8724;51.272;6.554;2023-10-19T10:17:29;15.40;99.90
4701;DHT22;8724;51.272;6.554;2023-10-19T10:20:30;15.40;99.90
4701;DHT22;8724;51.272;6.554;2023-10-19T10:23:18;15.40;99.90
4701;DHT22;8724;51.272;6.554;2023-10-19T10:25:49;15.50;99.90
4701;DHT22;8724;51.272;6.554;2023-10-19T10:28:18;15.50;99.90
4701;DHT22;8724;51.272;6.554;2023-10-19T10:31:12;15.50;99.90
4701;DHT22;8724;51.272;6.554;2023-10-19T10:33:44;15.50;99.90
4701;DHT22;8724;51.272;6.554;2023-10-19T10:36:15;15.50;99.90
4701;DHT22;8724;51.272;6.554;2023-10-19T10:38:45;15.60;99.90
4701;DHT22;8724;51.272;6.554;2023-10-19T10:41:20;15.60;99.90
4701;DHT22;8724;51.272;6.554;2023-10-19T10:43:52;15.60;99.90
4701;DHT22;8724;51.272;6.554;2023-10-19T10:46:22;15.60;99.90
4701;DHT22;8724;51.272;6.554;2023-10-19T10:48:51;15.70;99.90
4701;DHT22;8724;51.272;6.554;2023-10-19T10:51:22;15.70;99.90
4701;DHT22;8724;51.272;6.554;2023-10-19T10:53:52;15.70;99.90
4701;DHT22;8724;51.272;6.554;2023-10-19T10:56:22;15.80;99.90
4701;DHT22;8724;51.272;6.554;2023-10-19T10:58:50;15.80;99.90
4701;DHT22;8724;51.272;6.554;2023-10-19T11:01:28;15.80;99.90
4701;DHT22;8724;51.272;6.554;2023-10-19T11:04:06;15.80;99.90
4701;DHT22;8724;51.272;6.554;2023-10-19T11:06:47;15.80;99.90
4701;DHT22;8724;51.272;6.554;2023-10-19T11:09:16;15.90;99.90
4701;DHT22;8724;51.272;6.554;2023-10-19T11:11:46;15.90;99.90
4701;DHT22;8724;51.272;6.554;2023-10-19T11:14:16;15.90;99.90
4701;DHT22;8724;51.272;6.554;2023-10-19T11:16:44;15.90;99.90
4701;DHT22;8724;51.272;6.554;2023-10-19T11:19:13;15.90;99.90
4701;DHT22;8724;51.272;6.554;2023-10-19T11:21:53;16.00;99.90
4701;DHT22;8724;51.272;6.554;2023-10-19T11:24:26;16.00;99.90
4701;DHT22;8724;51.272;6.554;2023-10-19T11:26:57;16.00;99.90
4701;DHT22;8724;51.272;6.554;2023-10-19T11:29:25;16.00;99.90
4701;DHT22;8724;51.272;6.554;2023-10-19T11:31:57;16.00;99.90
4701;DHT22;8724;51.272;6.554;2023-10-19T11:34:26;16.00;99.90
4701;DHT22;8724;51.272;6.554;2023-10-19T11:36:57;16.20;99.90
4701;DHT22;8724;51.272;6.554;2023-10-19T11:39:27;16.00;99.90
4701;DHT22;8724;51.272;6.554;2023-10-19T11:41:55;16.00;99.90
4701;DHT22;8724;51.272;6.554;2023-10-19T11:44:24;16.00;99.90
4701;DHT22;8724;51.272;6.554;2023-10-19T11:46:52;16.00;99.90
4701;DHT22;8724;51.272;6.554;2023-10-19T11:49:20;16.00;99.90
4701;DHT22;8724;51.272;6.554;2023-10-19T11:51:53;15.80;99.90
4701;DHT22;8724;51.272;6.554;2023-10-19T11:54:22;16.10;99.90
4701;DHT22;8724;51.272;6.554;2023-10-19T11:56:52;16.10;99.90
4701;DHT22;8724;51.272;6.554;2023-10-19T11:59:21;16.10;99.90
4701;DHT22;8724;51.272;6.554;2023-10-19T12:01:50;16.10;99.90
4701;DHT22;8724;51.272;6.554;2023-10-19T12:04:21;16.30;99.90
4701;DHT22;8724;51.272;6.554;2023-10-19T12:06:49;16.20;99.90
4701;DHT22;8724;51.272;6.554;2023-10-19T12:09:17;16.20;99.90
4701;DHT22;8724;51.272;6.554;2023-10-19T12:11:46;16.20;99.90
4701;DHT22;8724;51.272;6.554;2023-10-19T12:14:16;16.20;99.90
4701;DHT22;8724;51.272;6.554;2023-10-19T12:16:45;16.20;99.90
4701;DHT22;8724;51.272;6.554;2023-10-19T12:19:13;16.20;99.90
4701;DHT22;8724;51.272;6.554;2023-10-19T12:21:44;16.20;99.90
4701;DHT22;8724;51.272;6.554;2023-10-19T12:24:12;16.20;99.90
4701;DHT22;8724;51.272;6.554;2023-10-19T12:26:42;16.20;99.90
4701;DHT22;8724;51.272;6.554;2023-10-19T12:29:11;16.20;99.90
4701;DHT22;8724;51.272;6.554;2023-10-19T12:31:41;16.20;99.90
4701;DHT22;8724;51.272;6.554;2023-10-19T12:34:10;16.20;99.90
4701;DHT22;8724;51.272;6.554;2023-10-19T12:36:39;16.20;99.90
4701;DHT22;8724;51.272;6.554;2023-10-19T12:39:08;16.20;99.90
4701;DHT22;8724;51.272;6.554;2023-10-19T12:41:38;16.20;99.90
4701;DHT22;8724;51.272;6.554;2023-10-19T12:44:06;16.20;99.90
4701;DHT22;8724;51.272;6.554;2023-10-19T12:46:37;16.20;99.90
4701;DHT22;8724;51.272;6.554;2023-10-19T12:49:06;16.20;99.90
4701;DHT22;8724;51.272;6.554;2023-10-19T12:51:40;16.20;99.90
4701;DHT22;8724;51.272;6.554;2023-10-19T12:54:11;16.20;99.90
4701;DHT22;8724;51.272;6.554;2023-10-19T12:56:40;16.20;99.90
4701;DHT22;8724;51.272;6.554;2023-10-19T12:59:08;16.20;99.90
4701;DHT22;8724;51.272;6.554;2023-10-19T13:01:38;16.20;99.90
4701;DHT22;8724;51.272;6.554;2023-10-19T13:04:07;16.20;99.90
4701;DHT22;8724;51.272;6.554;2023-10-19T13:06:43;16.30;99.90
4701;DHT22;8724;51.272;6.554;2023-10-19T13:09:14;16.20;99.90
4701;DHT22;8724;51.272;6.554;2023-10-19T13:11:48;16.20;99.90
4701;DHT22;8724;51.272;6.554;2023-10-19T13:14:18;16.20;99.90
4701;DHT22;8724;51.272;6.554;2023-10-19T13:16:47;16.20;99.90
4701;DHT22;8724;51.272;6.554;2023-10-19T13:19:18;16.20;99.90
4701;DHT22;8724;51.272;6.554;2023-10-19T13:21:47;16.20;99.90
4701;DHT22;8724;51.272;6.554;2023-10-19T13:24:18;16.20;99.90
4701;DHT22;8724;51.272;6.554;2023-10-19T13:26:47;16.20;99.90
4701;DHT22;8724;51.272;6.554;2023-10-19T13:29:15;16.30;99.90
4701;DHT22;8724;51.272;6.554;2023-10-19T13:31:44;16.20;99.90
4701;DHT22;8724;51.272;6.554;2023-10-19T13:34:17;16.20;99.90
4701;DHT22;8724;51.272;6.554;2023-10-19T13:36:45;16.30;99.90
4701;DHT22;8724;51.272;6.554;2023-10-19T13:39:14;16.30;99.90
4701;DHT22;8724;51.272;6.554;2023-10-19T13:41:44;16.20;99.90
4701;DHT22;8724;51.272;6.554;2023-10-19T13:44:12;16.30;99.90
4701;DHT22;8724;51.272;6.554;2023-10-19T13:46:40;16.30;99.90
4701;DHT22;8724;51.272;6.554;2023-10-19T13:49:09;16.30;99.90
4701;DHT22;8724;51.272;6.554;2023-10-19T13:51:38;16.30;99.90
4701;DHT22;8724;51.272;6.554;2023-10-19T13:54:06;16.30;99.90
4701;DHT22;8724;51.272;6.554;2023-10-19T13:56:34;16.30;99.90
4701;DHT22;8724;51.272;6.554;2023-10-19T13:59:03;16.30;99.90
4701;DHT22;8724;51.272;6.554;2023-10-19T14:01:32;16.30;99.90
4701;DHT22;8724;51.272;6.554;2023-10-19T14:04:01;16.30;99.90
4701;DHT22;8724;51.272;6.554;2023-10-19T14:06:29;16.30;99.90
4701;DHT22;8724;51.272;6.554;2023-10-19T14:08:59;16.30;99.90
4701;DHT22;8724;51.272;6.554;2023-10-19T14:11:27;16.30;99.90
4701;DHT22;8724;51.272;6.554;2023-10-19T14:13:55;16.30;99.90
4701;DHT22;8724;51.272;6.554;2023-10-19T14:16:23;16.30;99.90
4701;DHT22;8724;51.272;6.554;2023-10-19T14:18:53;16.30;99.90
4701;DHT22;8724;51.272;6.554;2023-10-19T14:21:23;16.30;99.90
4701;DHT22;8724;51.272;6.554;2023-10-19T14:23:53;16.30;99.90
4701;DHT22;8724;51.272;6.554;2023-10-19T14:26:23;16.30;99.90
4701;DHT22;8724;51.272;6.554;2023-10-19T14:28:51;16.40;99.90
4701;DHT22;8724;51.272;6.554;2023-10-19T14:31:20;16.40;99.90
4701;DHT22;8724;51.272;6.554;2023-10-19T14:33:48;16.30;99.90
4701;DHT22;8724;51.272;6.554;2023-10-19T14:36:17;16.40;99.90
4701;DHT22;8724;51.272;6.554;2023-10-19T14:38:46;16.40;99.90
4701;DHT22;8724;51.272;6.554;2023-10-19T14:41:14;16.40;99.90
4701;DHT22;8724;51.272;6.554;2023-10-19T14:43:43;16.40;99.90
4701;DHT22;8724;51.272;6.554;2023-10-19T14:46:12;16.40;99.90
4701;DHT22;8724;51.272;6.554;2023-10-19T14:48:41;16.40;99.90
4701;DHT22;8724;51.272;6.554;2023-10-19T14:51:09;16.40;99.90
4701;DHT22;8724;51.272;6.554;2023-10-19T14:53:38;16.40;99.90
4701;DHT22;8724;51.272;6.554;2023-10-19T14:56:06;16.40;99.90
4701;DHT22;8724;51.272;6.554;2023-10-19T14:58:35;16.40;99.90
4701;DHT22;8724;51.272;6.554;2023-10-19T15:01:05;16.50;99.90
4701;DHT22;8724;51.272;6.554;2023-10-19T15:03:41;16.40;99.90
4701;DHT22;8724;51.272;6.554;2023-10-19T15:06:09;16.40;99.90
4701;DHT22;8724;51.272;6.554;2023-10-19T15:08:38;16.40;99.90
4701;DHT22;8724;51.272;6.554;2023-10-19T15:11:06;16.40;99.90
4701;DHT22;8724;51.272;6.554;2023-10-19T15:13:34;16.40;99.90
4701;DHT22;8724;51.272;6.554;2023-10-19T15:16:09;16.40;99.90
4701;DHT22;8724;51.272;6.554;2023-10-19T15:18:39;16.40;99.90
4701;DHT22;8724;51.272;6.554;2023-10-19T15:21:07;16.50;99.90
4701;DHT22;8724;51.272;6.554;2023-10-19T15:23:36;16.40;99.90
4701;DHT22;8724;51.272;6.554;2023-10-19T15:26:04;16.50;99.90
4701;DHT22;8724;51.272;6.554;2023-10-19T15:28:39;16.50;99.90
4701;DHT22;8724;51.272;6.554;2023-10-19T15:31:21;16.70;99.90
4701;DHT22;8724;51.272;6.554;2023-10-19T15:33:49;16.50;99.90
4701;DHT22;8724;51.272;6.554;2023-10-19T15:36:18;16.50;99.90
4701;DHT22;8724;51.272;6.554;2023-10-19T15:38:46;16.50;99.90
4701;DHT22;8724;51.272;6.554;2023-10-19T15:41:16;16.50;99.90
4701;DHT22;8724;51.272;6.554;2023-10-19T15:43:44;16.50;99.90
4701;DHT22;8724;51.272;6.554;2023-10-19T15:46:12;16.50;99.90
4701;DHT22;8724;51.272;6.554;2023-10-19T15:48:44;16.50;99.90
4701;DHT22;8724;51.272;6.554;2023-10-19T15:51:12;16.50;99.90
4701;DHT22;8724;51.272;6.554;2023-10-19T15:53:40;16.50;99.90
4701;DHT22;8724;51.272;6.554;2023-10-19T15:56:08;16.80;99.90
4701;DHT22;8724;51.272;6.554;2023-10-19T15:58:36;16.50;99.90
4701;DHT22;8724;51.272;6.554;2023-10-19T16:01:05;16.60;99.90
4701;DHT22;8724;51.272;6.554;2023-10-19T16:03:33;16.60;99.90
4701;DHT22;8724;51.272;6.554;2023-10-19T16:06:04;16.60;99.90
4701;DHT22;8724;51.272;6.554;2023-10-19T16:08:33;16.60;99.90
4701;DHT22;8724;51.272;6.554;2023-10-19T16:11:03;16.60;99.90
4701;DHT22;8724;51.272;6.554;2023-10-19T16:13:31;16.60;99.90
4701;DHT22;8724;51.272;6.554;2023-10-19T16:16:02;16.60;99.90
4701;DHT22;8724;51.272;6.554;2023-10-19T16:18:30;16.60;99.90
4701;DHT22;8724;51.272;6.554;2023-10-19T16:20:58;16.60;99.90
4701;DHT22;8724;51.272;6.554;2023-10-19T16:23:28;16.60;99.90
4701;DHT22;8724;51.272;6.554;2023-10-19T16:25:57;16.60;99.90